sensor_id;sensor_type;location;lat;lon;timestamp;temperature;humidity
728;DHT22;347;48.780;9.158;2024-02-21T00:00:16;9.80;24.40
728;DHT22;347;48.780;9.158;2024-02-21T00:02:42;9.70;24.70
728;DHT22;347;48.780;9.158;2024-02-21T00:05:08;9.80;24.50
728;DHT22;347;48.780;9.158;2024-02-21T00:07:33;9.80;24.20
728;DHT22;347;48.780;9.158;2024-02-21T00:09:59;9.80;24.50
728;DHT22;347;48.780;9.158;2024-02-21T00:12:24;9.90;24.10
728;DHT22;347;48.780;9.158;2024-02-21T00:14:50;10.00;23.60
728;DHT22;347;48.780;9.158;2024-02-21T00:17:15;10.00;23.20
728;DHT22;347;48.780;9.158;2024-02-21T00:19:41;10.10;23.30
728;DHT22;347;48.780;9.158;2024-02-21T00:22:07;10.20;23.30
728;DHT22;347;48.780;9.158;2024-02-21T00:24:33;10.20;22.80
728;DHT22;347;48.780;9.158;2024-02-21T00:26:59;10.30;23.00
728;DHT22;347;48.780;9.158;2024-02-21T00:29:24;10.30;22.40
728;DHT22;347;48.780;9.158;2024-02-21T00:31:50;10.30;22.40
728;DHT22;347;48.780;9.158;2024-02-21T00:34:16;10.40;22.50
728;DHT22;347;48.780;9.158;2024-02-21T00:36:41;10.50;22.50
728;DHT22;347;48.780;9.158;2024-02-21T00:39:07;10.50;22.00
728;DHT22;347;48.780;9.158;2024-02-21T00:41:32;10.50;21.70
728;DHT22;347;48.780;9.158;2024-02-21T00:43:58;10.40;21.90
728;DHT22;347;48.780;9.158;2024-02-21T00:46:24;10.30;22.20
728;DHT22;347;48.780;9.158;2024-02-21T00:48:49;10.20;22.60
728;DHT22;347;48.780;9.158;2024-02-21T00:51:16;9.90;23.90
728;DHT22;347;48.780;9.158;2024-02-21T00:53:42;9.80;23.90
728;DHT22;347;48.780;9.158;2024-02-21T00:56:08;9.70;24.60
728;DHT22;347;48.780;9.158;2024-02-21T00:58:33;9.70;24.30
728;DHT22;347;48.780;9.158;2024-02-21T01:01:00;9.70;24.50
728;DHT22;347;48.780;9.158;2024-02-21T01:03:26;9.60;24.60
728;DHT22;347;48.780;9.158;2024-02-21T01:05:52;9.60;25.00
728;DHT22;347;48.780;9.158;2024-02-21T01:08:17;9.60;24.80
728;DHT22;347;48.780;9.158;2024-02-21T01:10:43;9.50;25.00
728;DHT22;347;48.780;9.158;2024-02-21T01:13:09;9.40;25.20
728;DHT22;347;48.780;9.158;2024-02-21T01:15:34;9.60;25.20
728;DHT22;347;48.780;9.158;2024-02-21T01:18:00;9.60;24.70
728;DHT22;347;48.780;9.158;2024-02-21T01:20:26;9.50;24.90
728;DHT22;347;48.780;9.158;2024-02-21T01:22:51;9.50;24.70
728;DHT22;347;48.780;9.158;2024-02-21T01:25:17;9.40;25.20
728;DHT22;347;48.780;9.158;2024-02-21T01:27:43;9.50;25.60
728;DHT22;347;48.780;9.158;2024-02-21T01:30:09;9.60;25.10
728;DHT22;347;48.780;9.158;2024-02-21T01:32:36;9.70;25.30
728;DHT22;347;48.780;9.158;2024-02-21T01:35:01;9.80;24.20
728;DHT22;347;48.780;9.158;2024-02-21T01:37:27;9.70;24.10
728;DHT22;347;48.780;9.158;2024-02-21T01:39:53;9.80;24.00
728;DHT22;347;48.780;9.158;2024-02-21T01:42:18;9.80;24.20
728;DHT22;347;48.780;9.158;2024-02-21T01:44:44;9.70;23.80
728;DHT22;347;48.780;9.158;2024-02-21T01:47:11;9.60;24.70
728;DHT22;347;48.780;9.158;2024-02-21T01:49:39;9.50;24.60
728;DHT22;347;48.780;9.158;2024-02-21T01:52:05;9.40;24.80
728;DHT22;347;48.780;9.158;2024-02-21T01:54:31;9.50;24.70
728;DHT22;347;48.780;9.158;2024-02-21T01:56:57;9.40;24.60
728;DHT22;347;48.780;9.158;2024-02-21T01:59:23;9.50;24.40
728;DHT22;347;48.780;9.158;2024-02-21T02:01:50;9.60;24.60
728;DHT22;347;48.780;9.158;2024-02-21T02:04:16;9.60;24.00
728;DHT22;347;48.780;9.158;2024-02-21T02:06:42;9.50;24.70
728;DHT22;347;48.780;9.158;2024-02-21T02:09:08;9.40;24.40
728;DHT22;347;48.780;9.158;2024-02-21T02:11:33;9.40;24.50
728;DHT22;347;48.780;9.158;2024-02-21T02:13:59;9.50;25.10
728;DHT22;347;48.780;9.158;2024-02-21T02:16:25;9.40;24.50
728;DHT22;347;48.780;9.158;2024-02-21T02:18:50;9.30;24.70
728;DHT22;347;48.780;9.158;2024-02-21T02:21:29;9.30;24.70
728;DHT22;347;48.780;9.158;2024-02-21T02:23:55;9.20;25.20
728;DHT22;347;48.780;9.158;2024-02-21T02:26:21;9.30;25.20
728;DHT22;347;48.780;9.158;2024-02-21T02:28:46;9.20;25.00
728;DHT22;347;48.780;9.158;2024-02-21T02:31:12;9.30;25.10
728;DHT22;347;48.780;9.158;2024-02-21T02:33:38;9.30;24.80
728;DHT22;347;48.780;9.158;2024-02-21T02:36:03;9.20;24.70
728;DHT22;347;48.780;9.158;2024-02-21T02:38:29;9.20;24.90
728;DHT22;347;48.780;9.158;2024-02-21T02:40:55;9.30;24.90
728;DHT22;347;48.780;9.158;2024-02-21T02:43:20;9.30;24.70
728;DHT22;347;48.780;9.158;2024-02-21T02:45:46;9.50;24.20
728;DHT22;347;48.780;9.158;2024-02-21T02:48:11;9.40;24.20
728;DHT22;347;48.780;9.158;2024-02-21T02:50:37;9.30;24.80
728;DHT22;347;48.780;9.158;2024-02-21T02:53:02;9.20;25.40
728;DHT22;347;48.780;9.158;2024-02-21T02:55:28;9.10;25.50
728;DHT22;347;48.780;9.158;2024-02-21T02:57:54;9.20;26.10
728;DHT22;347;48.780;9.158;2024-02-21T03:00:19;9.20;25.70
728;DHT22;347;48.780;9.158;2024-02-21T03:02:46;9.20;25.90
728;DHT22;347;48.780;9.158;2024-02-21T03:05:15;9.20;26.40
728;DHT22;347;48.780;9.158;2024-02-21T03:07:41;9.20;26.50
728;DHT22;347;48.780;9.158;2024-02-21T03:10:07;9.30;26.10
728;DHT22;347;48.780;9.158;2024-02-21T03:12:33;9.20;26.60
728;DHT22;347;48.780;9.158;2024-02-21T03:14:59;9.20;27.30
728;DHT22;347;48.780;9.158;2024-02-21T03:17:25;9.40;27.60
728;DHT22;347;48.780;9.158;2024-02-21T03:19:52;9.60;26.90
728;DHT22;347;48.780;9.158;2024-02-21T03:22:18;9.80;26.00
728;DHT22;347;48.780;9.158;2024-02-21T03:24:44;9.90;25.60
728;DHT22;347;48.780;9.158;2024-02-21T03:27:09;9.80;26.30
728;DHT22;347;48.780;9.158;2024-02-21T03:29:35;9.60;27.10
728;DHT22;347;48.780;9.158;2024-02-21T03:32:00;9.70;26.70
728;DHT22;347;48.780;9.158;2024-02-21T03:34:26;9.70;26.70
728;DHT22;347;48.780;9.158;2024-02-21T03:36:51;9.70;26.70
728;DHT22;347;48.780;9.158;2024-02-21T03:39:17;9.70;27.10
728;DHT22;347;48.780;9.158;2024-02-21T03:41:42;9.80;27.10
728;DHT22;347;48.780;9.158;2024-02-21T03:44:08;9.90;27.00
728;DHT22;347;48.780;9.158;2024-02-21T03:46:34;10.10;26.40
728;DHT22;347;48.780;9.158;2024-02-21T03:48:59;10.10;24.70
728;DHT22;347;48.780;9.158;2024-02-21T03:51:26;10.20;24.80
728;DHT22;347;48.780;9.158;2024-02-21T03:53:51;10.20;24.60
728;DHT22;347;48.780;9.158;2024-02-21T03:56:17;10.10;24.60
728;DHT22;347;48.780;9.158;2024-02-21T03:58:43;10.10;25.20
728;DHT22;347;48.780;9.158;2024-02-21T04:01:08;10.10;25.00
728;DHT22;347;48.780;9.158;2024-02-21T04:03:33;10.00;24.60
728;DHT22;347;48.780;9.158;2024-02-21T04:05:59;9.90;24.90
728;DHT22;347;48.780;9.158;2024-02-21T04:08:25;9.70;25.20
728;DHT22;347;48.780;9.158;2024-02-21T04:10:51;9.50;25.70
728;DHT22;347;48.780;9.158;2024-02-21T04:13:16;9.50;25.70
728;DHT22;347;48.780;9.158;2024-02-21T04:15:42;9.50;25.70
728;DHT22;347;48.780;9.158;2024-02-21T04:18:07;9.50;25.50
728;DHT22;347;48.780;9.158;2024-02-21T04:20:34;9.60;25.60
728;DHT22;347;48.780;9.158;2024-02-21T04:23:00;9.90;25.20
728;DHT22;347;48.780;9.158;2024-02-21T04:25:26;10.00;24.10
728;DHT22;347;48.780;9.158;2024-02-21T04:27:51;10.00;23.20
728;DHT22;347;48.780;9.158;2024-02-21T04:30:17;10.00;23.20
728;DHT22;347;48.780;9.158;2024-02-21T04:32:43;9.90;23.80
728;DHT22;347;48.780;9.158;2024-02-21T04:35:08;10.00;23.50
728;DHT22;347;48.780;9.158;2024-02-21T04:37:34;10.20;23.30
728;DHT22;347;48.780;9.158;2024-02-21T04:40:00;10.40;24.00
728;DHT22;347;48.780;9.158;2024-02-21T04:42:26;10.60;22.50
728;DHT22;347;48.780;9.158;2024-02-21T04:44:51;10.80;21.80
728;DHT22;347;48.780;9.158;2024-02-21T04:47:17;10.80;21.30
728;DHT22;347;48.780;9.158;2024-02-21T04:49:44;10.80;20.60
728;DHT22;347;48.780;9.158;2024-02-21T04:52:10;10.80;20.90
728;DHT22;347;48.780;9.158;2024-02-21T04:54:35;10.80;20.70
728;DHT22;347;48.780;9.158;2024-02-21T04:57:01;10.90;20.60
728;DHT22;347;48.780;9.158;2024-02-21T04:59:26;11.00;20.80
728;DHT22;347;48.780;9.158;2024-02-21T05:01:52;11.00;20.20
728;DHT22;347;48.780;9.158;2024-02-21T05:04:17;11.10;20.10
728;DHT22;347;48.780;9.158;2024-02-21T05:06:43;11.10;19.50
728;DHT22;347;48.780;9.158;2024-02-21T05:09:09;11.20;19.20
728;DHT22;347;48.780;9.158;2024-02-21T05:11:36;11.20;18.80
728;DHT22;347;48.780;9.158;2024-02-21T05:14:01;11.20;18.70
728;DHT22;347;48.780;9.158;2024-02-21T05:16:28;11.20;18.60
728;DHT22;347;48.780;9.158;2024-02-21T05:18:53;11.20;18.80
728;DHT22;347;48.780;9.158;2024-02-21T05:21:19;11.20;18.70
728;DHT22;347;48.780;9.158;2024-02-21T05:23:44;11.20;19.00
728;DHT22;347;48.780;9.158;2024-02-21T05:26:10;11.20;18.90
728;DHT22;347;48.780;9.158;2024-02-21T05:28:35;11.10;18.80
728;DHT22;347;48.780;9.158;2024-02-21T05:31:01;10.90;18.10
728;DHT22;347;48.780;9.158;2024-02-21T05:33:26;10.70;19.30
728;DHT22;347;48.780;9.158;2024-02-21T05:35:52;10.70;19.90
728;DHT22;347;48.780;9.158;2024-02-21T05:38:18;10.70;18.90
728;DHT22;347;48.780;9.158;2024-02-21T05:40:47;10.70;19.60
728;DHT22;347;48.780;9.158;2024-02-21T05:43:13;10.60;19.90
728;DHT22;347;48.780;9.158;2024-02-21T05:45:39;10.60;19.50
728;DHT22;347;48.780;9.158;2024-02-21T05:48:04;10.40;19.90
728;DHT22;347;48.780;9.158;2024-02-21T05:50:30;10.50;20.50
728;DHT22;347;48.780;9.158;2024-02-21T05:52:56;10.50;19.90
728;DHT22;347;48.780;9.158;2024-02-21T05:55:22;10.50;19.40
728;DHT22;347;48.780;9.158;2024-02-21T05:57:48;10.40;19.40
728;DHT22;347;48.780;9.158;2024-02-21T06:00:14;10.30;19.00
728;DHT22;347;48.780;9.158;2024-02-21T06:02:40;9.90;20.00
728;DHT22;347;48.780;9.158;2024-02-21T06:05:07;9.70;22.10
728;DHT22;347;48.780;9.158;2024-02-21T06:07:33;9.70;22.30
728;DHT22;347;48.780;9.158;2024-02-21T06:09:59;9.40;21.90
728;DHT22;347;48.780;9.158;2024-02-21T06:12:25;9.40;22.10
728;DHT22;347;48.780;9.158;2024-02-21T06:14:50;9.40;22.10
728;DHT22;347;48.780;9.158;2024-02-21T06:17:16;9.40;22.00
728;DHT22;347;48.780;9.158;2024-02-21T06:19:43;9.40;22.00
728;DHT22;347;48.780;9.158;2024-02-21T06:22:08;9.40;22.60
728;DHT22;347;48.780;9.158;2024-02-21T06:24:35;9.30;22.30
728;DHT22;347;48.780;9.158;2024-02-21T06:27:02;9.30;23.40
728;DHT22;347;48.780;9.158;2024-02-21T06:29:33;9.30;21.90
728;DHT22;347;48.780;9.158;2024-02-21T06:31:59;9.10;22.70
728;DHT22;347;48.780;9.158;2024-02-21T06:34:25;9.00;22.90
728;DHT22;347;48.780;9.158;2024-02-21T06:36:50;8.90;23.20
728;DHT22;347;48.780;9.158;2024-02-21T06:39:16;9.00;23.30
728;DHT22;347;48.780;9.158;2024-02-21T06:41:42;9.30;23.50
728;DHT22;347;48.780;9.158;2024-02-21T06:44:08;9.60;22.30
728;DHT22;347;48.780;9.158;2024-02-21T06:46:33;9.80;21.80
728;DHT22;347;48.780;9.158;2024-02-21T06:49:00;9.70;21.40
728;DHT22;347;48.780;9.158;2024-02-21T06:51:26;9.60;22.00
728;DHT22;347;48.780;9.158;2024-02-21T06:53:52;9.50;22.40
728;DHT22;347;48.780;9.158;2024-02-21T06:56:18;9.20;22.50
728;DHT22;347;48.780;9.158;2024-02-21T06:58:44;9.20;22.50
728;DHT22;347;48.780;9.158;2024-02-21T07:01:10;9.30;22.50
728;DHT22;347;48.780;9.158;2024-02-21T07:03:36;9.30;22.30
728;DHT22;347;48.780;9.158;2024-02-21T07:06:02;9.10;22.40
728;DHT22;347;48.780;9.158;2024-02-21T07:08:27;8.80;22.80
728;DHT22;347;48.780;9.158;2024-02-21T07:10:53;8.80;23.20
728;DHT22;347;48.780;9.158;2024-02-21T07:13:18;8.80;23.20
728;DHT22;347;48.780;9.158;2024-02-21T07:15:44;8.90;23.20
728;DHT22;347;48.780;9.158;2024-02-21T07:18:09;8.90;23.20
728;DHT22;347;48.780;9.158;2024-02-21T07:20:35;8.90;23.20
728;DHT22;347;48.780;9.158;2024-02-21T07:23:04;8.80;23.20
728;DHT22;347;48.780;9.158;2024-02-21T07:25:30;8.70;23.10
728;DHT22;347;48.780;9.158;2024-02-21T07:27:55;8.80;23.10
728;DHT22;347;48.780;9.158;2024-02-21T07:30:21;8.70;23.10
728;DHT22;347;48.780;9.158;2024-02-21T07:32:50;8.70;23.10
728;DHT22;347;48.780;9.158;2024-02-21T07:35:19;8.70;23.10
728;DHT22;347;48.780;9.158;2024-02-21T07:37:55;8.80;23.20
728;DHT22;347;48.780;9.158;2024-02-21T07:40:20;8.90;22.90
728;DHT22;347;48.780;9.158;2024-02-21T07:42:46;8.90;22.90
728;DHT22;347;48.780;9.158;2024-02-21T07:45:12;9.10;22.90
728;DHT22;347;48.780;9.158;2024-02-21T07:47:37;9.10;22.30
728;DHT22;347;48.780;9.158;2024-02-21T07:50:03;9.20;22.60
728;DHT22;347;48.780;9.158;2024-02-21T07:52:29;9.20;22.20
728;DHT22;347;48.780;9.158;2024-02-21T07:54:55;9.10;22.30
728;DHT22;347;48.780;9.158;2024-02-21T07:57:20;9.00;23.00
728;DHT22;347;48.780;9.158;2024-02-21T07:59:47;8.90;23.10
728;DHT22;347;48.780;9.158;2024-02-21T08:02:14;8.90;23.30
728;DHT22;347;48.780;9.158;2024-02-21T08:04:39;8.90;23.20
728;DHT22;347;48.780;9.158;2024-02-21T08:07:05;8.90;23.20
728;DHT22;347;48.780;9.158;2024-02-21T08:09:30;8.90;23.00
728;DHT22;347;48.780;9.158;2024-02-21T08:11:56;9.00;22.90
728;DHT22;347;48.780;9.158;2024-02-21T08:14:22;9.10;22.80
728;DHT22;347;48.780;9.158;2024-02-21T08:16:52;9.20;22.50
728;DHT22;347;48.780;9.158;2024-02-21T08:19:19;9.30;22.10
728;DHT22;347;48.780;9.158;2024-02-21T08:21:45;9.40;21.70
728;DHT22;347;48.780;9.158;2024-02-21T08:24:12;9.60;21.60
728;DHT22;347;48.780;9.158;2024-02-21T08:26:40;9.70;21.10
728;DHT22;347;48.780;9.158;2024-02-21T08:29:07;9.90;21.00
728;DHT22;347;48.780;9.158;2024-02-21T08:31:33;10.00;19.70
728;DHT22;347;48.780;9.158;2024-02-21T08:34:00;10.10;19.50
728;DHT22;347;48.780;9.158;2024-02-21T08:36:34;10.00;19.70
728;DHT22;347;48.780;9.158;2024-02-21T08:39:01;10.00;19.80
728;DHT22;347;48.780;9.158;2024-02-21T08:41:30;10.00;20.10
728;DHT22;347;48.780;9.158;2024-02-21T08:43:56;10.00;19.80
728;DHT22;347;48.780;9.158;2024-02-21T08:46:22;10.00;19.60
728;DHT22;347;48.780;9.158;2024-02-21T08:48:50;9.90;20.50
728;DHT22;347;48.780;9.158;2024-02-21T08:51:16;9.80;21.00
728;DHT22;347;48.780;9.158;2024-02-21T08:53:42;9.80;21.10
728;DHT22;347;48.780;9.158;2024-02-21T08:56:07;9.90;21.00
728;DHT22;347;48.780;9.158;2024-02-21T08:58:34;10.10;20.00
728;DHT22;347;48.780;9.158;2024-02-21T09:01:00;10.20;19.90
728;DHT22;347;48.780;9.158;2024-02-21T09:03:26;10.10;19.50
728;DHT22;347;48.780;9.158;2024-02-21T09:05:51;10.20;19.40
728;DHT22;347;48.780;9.158;2024-02-21T09:08:17;10.10;19.80
728;DHT22;347;48.780;9.158;2024-02-21T09:10:43;10.10;19.70
728;DHT22;347;48.780;9.158;2024-02-21T09:13:09;10.10;19.80
728;DHT22;347;48.780;9.158;2024-02-21T09:15:34;10.20;19.80
728;DHT22;347;48.780;9.158;2024-02-21T09:18:00;10.20;19.30
728;DHT22;347;48.780;9.158;2024-02-21T09:20:55;10.20;19.30
728;DHT22;347;48.780;9.158;2024-02-21T09:23:24;10.30;19.20
728;DHT22;347;48.780;9.158;2024-02-21T09:25:52;10.40;19.10
728;DHT22;347;48.780;9.158;2024-02-21T09:28:18;10.40;19.10
728;DHT22;347;48.780;9.158;2024-02-21T09:30:44;10.50;18.70
728;DHT22;347;48.780;9.158;2024-02-21T09:33:09;10.60;18.80
728;DHT22;347;48.780;9.158;2024-02-21T09:35:35;10.70;18.40
728;DHT22;347;48.780;9.158;2024-02-21T09:38:01;10.80;18.10
728;DHT22;347;48.780;9.158;2024-02-21T09:40:27;10.80;17.90
728;DHT22;347;48.780;9.158;2024-02-21T09:43:04;10.80;17.80
728;DHT22;347;48.780;9.158;2024-02-21T09:45:35;10.80;17.40
728;DHT22;347;48.780;9.158;2024-02-21T09:50:57;10.90;17.60
728;DHT22;347;48.780;9.158;2024-02-21T09:53:24;10.90;18.00
728;DHT22;347;48.780;9.158;2024-02-21T09:55:50;11.00;17.20
728;DHT22;347;48.780;9.158;2024-02-21T09:58:16;11.00;17.10
728;DHT22;347;48.780;9.158;2024-02-21T10:00:49;11.10;16.90
728;DHT22;347;48.780;9.158;2024-02-21T10:03:27;11.10;16.60
728;DHT22;347;48.780;9.158;2024-02-21T10:05:55;11.00;16.70
728;DHT22;347;48.780;9.158;2024-02-21T10:08:21;10.90;16.60
728;DHT22;347;48.780;9.158;2024-02-21T10:10:46;10.90;16.50
728;DHT22;347;48.780;9.158;2024-02-21T10:13:30;10.90;16.40
728;DHT22;347;48.780;9.158;2024-02-21T10:16:05;11.00;16.70
728;DHT22;347;48.780;9.158;2024-02-21T10:18:33;11.10;16.20
728;DHT22;347;48.780;9.158;2024-02-21T10:21:07;11.20;16.20
728;DHT22;347;48.780;9.158;2024-02-21T10:23:43;11.30;15.80
728;DHT22;347;48.780;9.158;2024-02-21T10:26:16;11.40;15.90
728;DHT22;347;48.780;9.158;2024-02-21T10:28:45;11.40;15.80
728;DHT22;347;48.780;9.158;2024-02-21T10:31:24;11.60;15.90
728;DHT22;347;48.780;9.158;2024-02-21T10:34:02;11.60;15.10
728;DHT22;347;48.780;9.158;2024-02-21T10:36:31;11.60;15.00
728;DHT22;347;48.780;9.158;2024-02-21T10:38:56;11.60;14.50
728;DHT22;347;48.780;9.158;2024-02-21T10:41:23;11.60;14.40
728;DHT22;347;48.780;9.158;2024-02-21T10:43:53;11.60;13.30
728;DHT22;347;48.780;9.158;2024-02-21T10:46:21;11.70;13.80
728;DHT22;347;48.780;9.158;2024-02-21T10:48:48;11.70;13.60
728;DHT22;347;48.780;9.158;2024-02-21T10:51:20;11.80;13.30
728;DHT22;347;48.780;9.158;2024-02-21T10:54:11;11.80;13.10
728;DHT22;347;48.780;9.158;2024-02-21T10:56:38;11.80;12.70
728;DHT22;347;48.780;9.158;2024-02-21T10:59:06;11.70;12.60
728;DHT22;347;48.780;9.158;2024-02-21T11:01:32;11.80;13.10
728;DHT22;347;48.780;9.158;2024-02-21T11:04:01;11.90;13.20
728;DHT22;347;48.780;9.158;2024-02-21T11:06:27;12.00;12.70
728;DHT22;347;48.780;9.158;2024-02-21T11:11:30;12.10;11.80
728;DHT22;347;48.780;9.158;2024-02-21T11:14:18;12.10;11.70
728;DHT22;347;48.780;9.158;2024-02-21T11:16:44;12.20;12.10
728;DHT22;347;48.780;9.158;2024-02-21T11:21:44;12.40;12.60
728;DHT22;347;48.780;9.158;2024-02-21T11:24:10;12.40;11.90
728;DHT22;347;48.780;9.158;2024-02-21T11:26:37;12.30;11.60
728;DHT22;347;48.780;9.158;2024-02-21T11:29:03;12.30;12.00
728;DHT22;347;48.780;9.158;2024-02-21T11:31:41;12.20;12.00
728;DHT22;347;48.780;9.158;2024-02-21T11:34:11;12.20;12.10
728;DHT22;347;48.780;9.158;2024-02-21T11:36:46;12.30;13.00
728;DHT22;347;48.780;9.158;2024-02-21T11:39:13;12.40;12.70
728;DHT22;347;48.780;9.158;2024-02-21T11:41:43;12.50;12.20
728;DHT22;347;48.780;9.158;2024-02-21T11:44:08;12.60;11.90
728;DHT22;347;48.780;9.158;2024-02-21T11:46:34;12.60;11.50
728;DHT22;347;48.780;9.158;2024-02-21T11:48:59;12.60;11.40
728;DHT22;347;48.780;9.158;2024-02-21T11:51:27;12.60;11.30
728;DHT22;347;48.780;9.158;2024-02-21T11:53:53;12.70;11.10
728;DHT22;347;48.780;9.158;2024-02-21T11:56:19;12.70;10.50
728;DHT22;347;48.780;9.158;2024-02-21T11:58:46;12.80;10.40
728;DHT22;347;48.780;9.158;2024-02-21T12:01:13;12.80;8.20
728;DHT22;347;48.780;9.158;2024-02-21T12:03:40;12.70;7.70
728;DHT22;347;48.780;9.158;2024-02-21T12:06:07;12.70;7.80
728;DHT22;347;48.780;9.158;2024-02-21T12:08:44;12.70;7.40
728;DHT22;347;48.780;9.158;2024-02-21T12:11:22;12.80;7.90
728;DHT22;347;48.780;9.158;2024-02-21T12:14:04;13.00;7.90
728;DHT22;347;48.780;9.158;2024-02-21T12:16:30;13.00;7.10
728;DHT22;347;48.780;9.158;2024-02-21T12:18:57;13.10;7.30
728;DHT22;347;48.780;9.158;2024-02-21T12:21:30;13.20;7.10
728;DHT22;347;48.780;9.158;2024-02-21T12:23:56;13.20;6.80
728;DHT22;347;48.780;9.158;2024-02-21T12:26:22;13.20;7.00
728;DHT22;347;48.780;9.158;2024-02-21T12:28:57;13.20;6.30
728;DHT22;347;48.780;9.158;2024-02-21T12:31:22;13.20;7.00
728;DHT22;347;48.780;9.158;2024-02-21T12:33:48;13.30;7.80
728;DHT22;347;48.780;9.158;2024-02-21T12:36:13;13.40;7.50
728;DHT22;347;48.780;9.158;2024-02-21T12:38:40;13.50;6.30
728;DHT22;347;48.780;9.158;2024-02-21T12:41:05;13.40;6.00
728;DHT22;347;48.780;9.158;2024-02-21T12:43:31;13.50;6.10
728;DHT22;347;48.780;9.158;2024-02-21T12:45:57;13.40;6.70
728;DHT22;347;48.780;9.158;2024-02-21T12:48:22;13.40;6.90
728;DHT22;347;48.780;9.158;2024-02-21T12:50:49;13.40;6.80
728;DHT22;347;48.780;9.158;2024-02-21T12:53:19;13.50;6.40
728;DHT22;347;48.780;9.158;2024-02-21T12:55:47;13.50;6.20
728;DHT22;347;48.780;9.158;2024-02-21T12:58:13;13.50;6.50
728;DHT22;347;48.780;9.158;2024-02-21T13:00:39;13.60;6.30
728;DHT22;347;48.780;9.158;2024-02-21T13:03:05;13.50;6.00
728;DHT22;347;48.780;9.158;2024-02-21T13:05:30;13.60;6.20
728;DHT22;347;48.780;9.158;2024-02-21T13:07:58;13.50;5.90
728;DHT22;347;48.780;9.158;2024-02-21T13:10:24;13.50;5.90
728;DHT22;347;48.780;9.158;2024-02-21T13:12:52;13.40;5.80
728;DHT22;347;48.780;9.158;2024-02-21T13:15:17;13.40;5.60
728;DHT22;347;48.780;9.158;2024-02-21T13:17:44;13.50;5.30
728;DHT22;347;48.780;9.158;2024-02-21T13:20:13;13.50;5.40
728;DHT22;347;48.780;9.158;2024-02-21T13:22:38;13.50;5.60
728;DHT22;347;48.780;9.158;2024-02-21T13:25:05;13.60;5.60
728;DHT22;347;48.780;9.158;2024-02-21T13:27:33;13.60;5.40
728;DHT22;347;48.780;9.158;2024-02-21T13:29:58;13.70;5.80
728;DHT22;347;48.780;9.158;2024-02-21T13:32:25;13.70;5.50
728;DHT22;347;48.780;9.158;2024-02-21T13:34:51;13.60;5.20
728;DHT22;347;48.780;9.158;2024-02-21T13:37:17;13.60;5.30
728;DHT22;347;48.780;9.158;2024-02-21T13:39:43;13.60;5.40
728;DHT22;347;48.780;9.158;2024-02-21T13:42:09;13.60;5.40
728;DHT22;347;48.780;9.158;2024-02-21T13:44:34;13.60;5.10
728;DHT22;347;48.780;9.158;2024-02-21T13:47:00;13.60;4.80
728;DHT22;347;48.780;9.158;2024-02-21T13:49:26;13.60;5.00
728;DHT22;347;48.780;9.158;2024-02-21T13:51:51;13.60;5.10
728;DHT22;347;48.780;9.158;2024-02-21T13:54:17;13.80;6.10
728;DHT22;347;48.780;9.158;2024-02-21T13:56:45;13.80;4.70
728;DHT22;347;48.780;9.158;2024-02-21T13:59:12;13.80;4.30
728;DHT22;347;48.780;9.158;2024-02-21T14:01:39;13.80;4.30
728;DHT22;347;48.780;9.158;2024-02-21T14:04:04;13.80;4.50
728;DHT22;347;48.780;9.158;2024-02-21T14:06:30;13.80;4.30
728;DHT22;347;48.780;9.158;2024-02-21T14:08:55;13.70;4.40
728;DHT22;347;48.780;9.158;2024-02-21T14:11:21;13.80;4.50
728;DHT22;347;48.780;9.158;2024-02-21T14:13:46;13.80;3.90
728;DHT22;347;48.780;9.158;2024-02-21T14:16:13;13.80;3.90
728;DHT22;347;48.780;9.158;2024-02-21T14:18:40;13.80;3.70
728;DHT22;347;48.780;9.158;2024-02-21T14:21:09;13.80;3.50
728;DHT22;347;48.780;9.158;2024-02-21T14:23:38;13.80;3.60
728;DHT22;347;48.780;9.158;2024-02-21T14:26:05;13.80;3.80
728;DHT22;347;48.780;9.158;2024-02-21T14:28:32;13.80;3.50
728;DHT22;347;48.780;9.158;2024-02-21T14:30:59;13.80;3.10
728;DHT22;347;48.780;9.158;2024-02-21T14:33:26;13.70;3.10
728;DHT22;347;48.780;9.158;2024-02-21T14:35:52;13.70;3.20
728;DHT22;347;48.780;9.158;2024-02-21T14:38:18;13.70;3.20
728;DHT22;347;48.780;9.158;2024-02-21T14:40:44;13.80;2.90
728;DHT22;347;48.780;9.158;2024-02-21T14:43:11;13.90;3.80
728;DHT22;347;48.780;9.158;2024-02-21T14:45:40;13.90;3.00
728;DHT22;347;48.780;9.158;2024-02-21T14:48:07;13.90;2.10
728;DHT22;347;48.780;9.158;2024-02-21T14:50:33;13.90;2.00
728;DHT22;347;48.780;9.158;2024-02-21T14:52:58;13.80;1.20
728;DHT22;347;48.780;9.158;2024-02-21T14:55:24;13.80;2.30
728;DHT22;347;48.780;9.158;2024-02-21T14:57:50;13.80;1.60
728;DHT22;347;48.780;9.158;2024-02-21T15:00:17;13.80;2.00
728;DHT22;347;48.780;9.158;2024-02-21T15:02:43;13.80;2.70
728;DHT22;347;48.780;9.158;2024-02-21T15:05:09;13.80;1.50
728;DHT22;347;48.780;9.158;2024-02-21T15:07:44;13.80;1.50
728;DHT22;347;48.780;9.158;2024-02-21T15:10:12;13.80;1.00
728;DHT22;347;48.780;9.158;2024-02-21T15:12:37;13.80;1.00
728;DHT22;347;48.780;9.158;2024-02-21T15:15:03;13.70;1.00
728;DHT22;347;48.780;9.158;2024-02-21T15:17:29;13.70;1.00
728;DHT22;347;48.780;9.158;2024-02-21T15:19:55;13.80;1.00
728;DHT22;347;48.780;9.158;2024-02-21T15:22:21;13.80;1.00
728;DHT22;347;48.780;9.158;2024-02-21T15:24:48;13.70;1.00
728;DHT22;347;48.780;9.158;2024-02-21T15:27:14;13.80;1.00
728;DHT22;347;48.780;9.158;2024-02-21T15:29:40;13.80;1.30
728;DHT22;347;48.780;9.158;2024-02-21T15:32:06;13.70;1.80
728;DHT22;347;48.780;9.158;2024-02-21T15:34:32;13.70;2.20
728;DHT22;347;48.780;9.158;2024-02-21T15:36:57;13.70;2.40
728;DHT22;347;48.780;9.158;2024-02-21T15:39:23;13.70;3.00
728;DHT22;347;48.780;9.158;2024-02-21T15:41:50;13.70;2.70
728;DHT22;347;48.780;9.158;2024-02-21T15:44:16;13.80;3.20
728;DHT22;347;48.780;9.158;2024-02-21T15:47:01;13.70;4.10
728;DHT22;347;48.780;9.158;2024-02-21T15:49:36;13.70;5.40
728;DHT22;347;48.780;9.158;2024-02-21T15:52:02;13.70;6.60
728;DHT22;347;48.780;9.158;2024-02-21T15:54:27;13.80;5.90
728;DHT22;347;48.780;9.158;2024-02-21T15:56:53;13.80;6.70
728;DHT22;347;48.780;9.158;2024-02-21T15:59:18;13.80;6.30
728;DHT22;347;48.780;9.158;2024-02-21T16:01:44;13.70;6.70
728;DHT22;347;48.780;9.158;2024-02-21T16:04:09;13.70;7.20
728;DHT22;347;48.780;9.158;2024-02-21T16:06:35;13.70;7.30
728;DHT22;347;48.780;9.158;2024-02-21T16:09:00;13.70;7.60
728;DHT22;347;48.780;9.158;2024-02-21T16:11:30;13.70;8.00
728;DHT22;347;48.780;9.158;2024-02-21T16:13:55;13.60;8.40
728;DHT22;347;48.780;9.158;2024-02-21T16:16:21;13.70;8.80
728;DHT22;347;48.780;9.158;2024-02-21T16:18:47;13.70;8.80
728;DHT22;347;48.780;9.158;2024-02-21T16:21:15;13.70;8.80
728;DHT22;347;48.780;9.158;2024-02-21T16:23:40;13.70;8.80
728;DHT22;347;48.780;9.158;2024-02-21T16:26:06;13.60;8.70
728;DHT22;347;48.780;9.158;2024-02-21T16:28:32;13.60;8.70
728;DHT22;347;48.780;9.158;2024-02-21T16:30:57;13.60;8.90
728;DHT22;347;48.780;9.158;2024-02-21T16:33:23;13.60;9.00
728;DHT22;347;48.780;9.158;2024-02-21T16:35:50;13.70;9.20
728;DHT22;347;48.780;9.158;2024-02-21T16:38:16;13.60;9.40
728;DHT22;347;48.780;9.158;2024-02-21T16:40:41;13.60;9.70
728;DHT22;347;48.780;9.158;2024-02-21T16:43:08;13.70;9.40
728;DHT22;347;48.780;9.158;2024-02-21T16:45:34;13.70;9.60
728;DHT22;347;48.780;9.158;2024-02-21T16:48:02;13.70;9.80
728;DHT22;347;48.780;9.158;2024-02-21T16:50:30;13.60;9.70